createdAt,value
2022-11-29T00:02:04.170Z,16.35
2022-11-29T00:05:10.543Z,16.17
2022-11-29T00:07:58.697Z,16.21
2022-11-29T00:11:11.603Z,16.16
2022-11-29T00:14:17.160Z,16.08
2022-11-29T00:17:20.477Z,15.80
2022-11-29T00:20:23.656Z,15.90
2022-11-29T00:23:27.261Z,15.37
2022-11-29T00:26:30.510Z,15.32
2022-11-29T00:29:33.676Z,15.53
2022-11-29T00:32:36.855Z,15.45
2022-11-29T00:35:40.125Z,15.16
2022-11-29T00:38:43.491Z,15.23
2022-11-29T00:41:47.896Z,15.35
2022-11-29T00:44:50.959Z,15.22
2022-11-29T00:47:56.129Z,15.13
2022-11-29T00:50:59.282Z,15.09
2022-11-29T00:54:02.611Z,14.98
2022-11-29T00:57:05.840Z,14.66
2022-11-29T01:00:10.026Z,14.52
2022-11-29T01:03:13.101Z,14.48
2022-11-29T01:06:18.197Z,14.57
2022-11-29T01:09:21.413Z,14.57
2022-11-29T01:12:24.644Z,14.45
2022-11-29T01:15:27.921Z,14.51
2022-11-29T01:18:31.788Z,14.57
2022-11-29T01:21:34.944Z,14.28
2022-11-29T01:24:38.049Z,14.50
2022-11-29T01:27:45.373Z,14.54
2022-11-29T01:30:48.625Z,14.38
2022-11-29T01:33:56.222Z,14.27
2022-11-29T01:36:59.757Z,14.32
2022-11-29T01:40:02.944Z,14.07
2022-11-29T01:43:15.205Z,13.86
2022-11-29T01:46:18.346Z,13.75
2022-11-29T01:49:31.377Z,13.95
2022-11-29T01:52:34.631Z,13.98
2022-11-29T01:55:43.325Z,13.99
2022-11-29T01:58:46.588Z,13.50
2022-11-29T02:01:49.751Z,13.14
2022-11-29T02:04:53.260Z,13.22
2022-11-29T02:07:57.522Z,13.46
2022-11-29T02:11:22.107Z,13.72
2022-11-29T02:14:56.563Z,13.72
2022-11-29T02:18:07.660Z,13.60
2022-11-29T02:22:06.098Z,13.34
2022-11-29T02:25:40.603Z,13.28
2022-11-29T02:29:24.985Z,13.22
2022-11-29T02:32:43.476Z,13.34
2022-11-29T02:35:58.461Z,13.53
2022-11-29T02:39:18.373Z,13.57
2022-11-29T02:42:43.857Z,13.23
2022-11-29T02:45:53.694Z,12.96
2022-11-29T02:49:23.458Z,12.83
2022-11-29T02:52:35.208Z,12.88
2022-11-29T02:56:09.422Z,12.99
2022-11-29T02:59:47.417Z,13.28
2022-11-29T03:03:01.576Z,13.37
2022-11-29T03:06:26.791Z,13.07
2022-11-29T03:09:50.480Z,12.66
2022-11-29T03:12:54.844Z,12.62
2022-11-29T03:16:15.912Z,12.61
2022-11-29T03:19:37.895Z,12.95
2022-11-29T03:22:59.789Z,13.07
2022-11-29T03:26:12.555Z,13.04
2022-11-29T03:29:34.274Z,12.93
2022-11-29T03:33:21.860Z,12.61
2022-11-29T03:36:26.460Z,12.72
2022-11-29T03:39:38.147Z,12.54
2022-11-29T03:42:56.099Z,12.65
2022-11-29T03:46:00.675Z,12.55
2022-11-29T03:49:11.692Z,12.34
2022-11-29T03:52:40.645Z,12.41
2022-11-29T03:56:04.118Z,12.61
2022-11-29T03:59:27.392Z,12.29
2022-11-29T04:02:49.935Z,12.49
2022-11-29T04:06:19.816Z,12.65
2022-11-29T04:09:41.135Z,12.58
2022-11-29T04:12:58.293Z,12.53
2022-11-29T04:16:26.077Z,12.13
2022-11-29T04:19:47.290Z,12.00
2022-11-29T04:23:19.183Z,12.36
2022-11-29T04:26:51.501Z,12.43
2022-11-29T04:30:11.557Z,11.92
2022-11-29T04:33:37.060Z,11.70
2022-11-29T04:36:55.297Z,11.67
2022-11-29T04:40:01.179Z,11.76
2022-11-29T04:43:35.125Z,11.81
2022-11-29T04:46:56.321Z,11.95
2022-11-29T04:50:18.111Z,11.81
2022-11-29T04:53:31.433Z,11.98
2022-11-29T04:56:51.779Z,11.96
2022-11-29T05:00:14.072Z,11.87
2022-11-29T05:03:23.833Z,11.83
2022-11-29T05:06:41.266Z,11.87
2022-11-29T05:09:51.153Z,12.07
2022-11-29T05:13:12.885Z,12.13
2022-11-29T05:16:38.503Z,12.17
2022-11-29T05:19:59.596Z,11.75
2022-11-29T05:23:24.952Z,11.97
2022-11-29T05:26:43.385Z,11.87
2022-11-29T05:30:22.961Z,11.96
2022-11-29T05:33:37.909Z,11.97
2022-11-29T05:36:56.121Z,12.04
2022-11-29T05:40:01.904Z,11.83
2022-11-29T05:43:13.805Z,12.10
2022-11-29T05:46:37.279Z,12.09
2022-11-29T05:50:03.410Z,12.07
2022-11-29T05:53:12.523Z,12.41
2022-11-29T05:56:53.511Z,12.02
2022-11-29T05:59:58.197Z,11.82
2022-11-29T06:03:31.420Z,11.80
2022-11-29T06:06:41.675Z,12.00
2022-11-29T06:10:01.481Z,12.37
2022-11-29T06:13:04.681Z,12.28
2022-11-29T06:16:49.080Z,12.10
2022-11-29T06:20:21.278Z,12.05
2022-11-29T06:23:48.838Z,12.22
2022-11-29T06:27:25.224Z,12.16
2022-11-29T06:30:35.099Z,12.60
2022-11-29T06:33:50.614Z,12.78
2022-11-29T06:37:16.667Z,12.52
2022-11-29T06:40:19.826Z,12.34
2022-11-29T06:43:23.279Z,12.40
2022-11-29T06:46:26.382Z,12.55
2022-11-29T06:49:33.995Z,12.37
2022-11-29T06:52:47.237Z,12.30
2022-11-29T06:55:57.227Z,12.06
2022-11-29T06:59:14.107Z,12.04
2022-11-29T07:02:20.161Z,12.47
2022-11-29T07:05:29.972Z,12.69
2022-11-29T07:08:33.507Z,12.47
2022-11-29T07:11:39.236Z,12.41
2022-11-29T07:14:43.058Z,12.39
2022-11-29T07:18:00.425Z,12.59
2022-11-29T07:21:03.502Z,12.92
2022-11-29T07:24:48.065Z,13.03
2022-11-29T07:28:03.314Z,12.69
2022-11-29T07:31:46.169Z,12.88
2022-11-29T07:35:03.033Z,12.73
2022-11-29T07:38:10.101Z,12.93
2022-11-29T07:41:13.320Z,13.10
2022-11-29T07:44:40.771Z,13.08
2022-11-29T07:47:44.584Z,13.15
2022-11-29T07:50:47.949Z,13.24
2022-11-29T07:53:51.119Z,13.49
2022-11-29T07:56:54.394Z,13.61
2022-11-29T07:59:57.652Z,13.75
2022-11-29T08:03:00.891Z,13.67
2022-11-29T08:06:04.259Z,13.66
2022-11-29T08:09:07.325Z,13.75
2022-11-29T08:12:10.526Z,13.91
2022-11-29T08:15:14.183Z,14.09
2022-11-29T08:18:19.723Z,14.24
2022-11-29T08:21:23.036Z,14.69
2022-11-29T08:24:26.175Z,14.77
2022-11-29T08:27:29.644Z,14.93
2022-11-29T08:30:33.196Z,14.73
2022-11-29T08:33:38.054Z,14.76
2022-11-29T08:36:41.426Z,14.79
2022-11-29T08:39:46.488Z,14.76
2022-11-29T08:42:50.917Z,14.68
2022-11-29T08:45:54.302Z,14.81
2022-11-29T08:48:57.449Z,14.83
2022-11-29T08:52:00.543Z,14.85
2022-11-29T08:55:05.826Z,14.91
2022-11-29T08:58:11.682Z,14.90
2022-11-29T09:01:20.794Z,14.89
2022-11-29T09:04:24.032Z,14.81
2022-11-29T09:07:27.395Z,15.00
2022-11-29T09:10:30.537Z,14.87
2022-11-29T09:13:36.023Z,14.96
2022-11-29T09:16:39.554Z,14.96
2022-11-29T09:19:42.778Z,14.92
2022-11-29T09:22:45.961Z,14.92
2022-11-29T09:25:50.005Z,15.01
2022-11-29T09:28:53.084Z,15.02
2022-11-29T09:31:56.465Z,14.88
2022-11-29T09:34:59.692Z,14.90
2022-11-29T09:38:02.873Z,14.99
2022-11-29T09:41:33.665Z,15.13
2022-11-29T09:44:42.827Z,15.15
2022-11-29T09:48:08.009Z,15.19
2022-11-29T09:51:24.917Z,15.21
2022-11-29T09:54:28.065Z,15.28
2022-11-29T09:57:31.840Z,15.23
2022-11-29T10:00:41.954Z,15.50
2022-11-29T10:03:53.071Z,15.80
2022-11-29T10:07:03.890Z,15.76
2022-11-29T10:10:17.575Z,15.91
2022-11-29T10:13:27.044Z,16.15
2022-11-29T10:16:47.505Z,16.15
2022-11-29T10:19:58.624Z,16.27
2022-11-29T10:23:26.237Z,16.14
2022-11-29T10:26:34.792Z,16.06
2022-11-29T10:29:39.362Z,16.25
2022-11-29T10:32:44.967Z,15.99
2022-11-29T10:35:49.486Z,16.15
2022-11-29T10:38:53.663Z,16.23
2022-11-29T10:41:59.480Z,16.53
2022-11-29T10:45:03.087Z,16.58
2022-11-29T10:48:11.398Z,16.79
2022-11-29T10:51:18.801Z,16.96
2022-11-29T10:54:39.518Z,16.99
2022-11-29T10:58:15.028Z,16.74
2022-11-29T11:01:18.542Z,16.74
2022-11-29T11:04:35.876Z,16.67
2022-11-29T11:07:39.649Z,16.79
2022-11-29T11:10:45.060Z,16.77
2022-11-29T11:13:59.663Z,16.88
2022-11-29T11:17:19.880Z,17.02
2022-11-29T11:20:24.807Z,17.14
2022-11-29T11:23:31.963Z,16.96
2022-11-29T11:26:46.046Z,17.15
2022-11-29T11:29:53.431Z,17.14
2022-11-29T11:33:21.599Z,17.10
2022-11-29T11:36:27.510Z,17.25
2022-11-29T11:39:30.830Z,17.07
2022-11-29T11:42:36.232Z,17.25
2022-11-29T11:45:39.490Z,17.30
2022-11-29T11:48:42.738Z,17.23
2022-11-29T11:51:46.058Z,17.34
2022-11-29T11:54:54.720Z,17.30
2022-11-29T11:58:13.283Z,17.43
2022-11-29T12:01:50.001Z,17.40
2022-11-29T12:04:56.443Z,17.62
2022-11-29T12:08:09.812Z,17.54
2022-11-29T12:11:15.428Z,17.53
2022-11-29T12:14:55.441Z,17.44
2022-11-29T12:18:06.627Z,17.44
2022-11-29T12:21:17.950Z,17.36
2022-11-29T12:24:27.355Z,17.48
2022-11-29T12:27:31.585Z,17.49
2022-11-29T12:30:35.009Z,17.59
2022-11-29T12:34:05.988Z,17.51
2022-11-29T12:37:11.901Z,17.42
2022-11-29T12:40:24.116Z,17.66
2022-11-29T12:43:48.786Z,17.72
2022-11-29T12:50:32.474Z,17.73
2022-11-29T12:53:35.591Z,17.81
2022-11-29T12:56:59.349Z,17.75
2022-11-29T13:00:02.478Z,17.77
2022-11-29T13:03:05.646Z,17.85
2022-11-29T13:06:48.700Z,17.83
2022-11-29T13:10:20.930Z,17.87
2022-11-29T13:13:35.956Z,17.88
2022-11-29T13:16:44.821Z,18.03
2022-11-29T13:19:59.347Z,18.13
2022-11-29T13:23:46.150Z,18.09
2022-11-29T13:26:49.427Z,18.14
2022-11-29T13:29:52.644Z,18.20
2022-11-29T13:33:06.137Z,18.18
2022-11-29T13:36:46.487Z,18.14
2022-11-29T13:39:56.566Z,18.39
2022-11-29T13:43:18.800Z,18.16
2022-11-29T13:46:47.929Z,18.39
2022-11-29T13:49:51.069Z,18.31
2022-11-29T13:53:26.216Z,18.48
2022-11-29T13:56:41.315Z,18.62
2022-11-29T13:59:49.668Z,18.74
2022-11-29T14:02:53.068Z,18.68
2022-11-29T14:06:10.288Z,18.67
2022-11-29T14:09:27.545Z,18.73
2022-11-29T14:12:33.171Z,18.68
2022-11-29T14:15:36.386Z,18.82
2022-11-29T14:18:39.471Z,18.84
2022-11-29T14:22:00.633Z,18.85
2022-11-29T14:25:16.577Z,18.91
2022-11-29T14:28:24.973Z,19.06
2022-11-29T14:31:52.959Z,19.00
2022-11-29T14:35:19.309Z,18.94
2022-11-29T14:38:29.222Z,18.99
2022-11-29T14:41:55.226Z,19.05
2022-11-29T14:45:01.078Z,19.21
2022-11-29T14:48:04.448Z,19.33
2022-11-29T14:51:15.371Z,19.39
2022-11-29T14:54:22.459Z,19.40
2022-11-29T14:57:43.828Z,19.47
2022-11-29T15:00:50.007Z,19.55
2022-11-29T15:03:53.597Z,19.28
2022-11-29T15:06:57.730Z,19.40
2022-11-29T15:10:06.495Z,19.78
2022-11-29T15:13:14.810Z,19.83
2022-11-29T15:16:27.619Z,19.84
2022-11-29T15:20:04.962Z,19.89
2022-11-29T15:23:14.536Z,20.07
2022-11-29T15:26:24.682Z,20.20
2022-11-29T15:29:29.347Z,20.24
2022-11-29T15:32:36.557Z,20.34
2022-11-29T15:35:39.683Z,20.54
2022-11-29T15:38:44.590Z,20.48
2022-11-29T15:41:48.045Z,20.60
2022-11-29T15:44:51.914Z,20.76
2022-11-29T15:47:55.603Z,20.77
2022-11-29T15:51:27.770Z,20.64
2022-11-29T15:54:40.885Z,20.65
2022-11-29T15:57:46.724Z,20.64
2022-11-29T16:00:50.844Z,20.62
2022-11-29T16:03:55.819Z,20.67
2022-11-29T16:07:01.552Z,20.53
2022-11-29T16:10:15.138Z,20.42
2022-11-29T16:13:34.794Z,20.59
2022-11-29T16:16:38.995Z,20.78
2022-11-29T16:19:42.174Z,20.78
2022-11-29T16:22:45.993Z,20.94
2022-11-29T16:26:19.352Z,20.99
2022-11-29T16:29:37.541Z,21.01
2022-11-29T16:32:46.212Z,21.08
2022-11-29T16:35:49.517Z,20.89
2022-11-29T16:39:09.212Z,20.94
2022-11-29T16:42:25.007Z,20.96
2022-11-29T16:45:40.179Z,21.15
2022-11-29T16:48:45.727Z,21.36
2022-11-29T16:51:48.913Z,21.39
2022-11-29T16:54:52.247Z,21.48
2022-11-29T16:57:58.388Z,21.52
2022-11-29T17:01:03.573Z,21.63
2022-11-29T17:04:09.953Z,21.55
2022-11-29T17:07:20.406Z,21.80
2022-11-29T17:10:27.643Z,21.96
2022-11-29T17:13:30.845Z,22.03
2022-11-29T17:16:33.972Z,22.31
2022-11-29T17:19:37.641Z,22.60
2022-11-29T17:22:41.196Z,22.72
2022-11-29T17:25:44.381Z,22.84
2022-11-29T17:28:50.312Z,23.14
2022-11-29T17:31:53.691Z,23.34
2022-11-29T17:34:56.928Z,23.29
2022-11-29T17:38:00.315Z,23.51
2022-11-29T17:41:13.989Z,23.56
2022-11-29T17:44:17.144Z,23.81
2022-11-29T17:47:20.284Z,23.98
2022-11-29T17:50:23.391Z,23.96
2022-11-29T17:53:26.627Z,24.18
2022-11-29T17:56:29.920Z,23.95
2022-11-29T17:59:33.026Z,23.91
2022-11-29T18:02:36.386Z,24.06
2022-11-29T18:05:39.529Z,24.13
2022-11-29T18:08:45.593Z,24.30
2022-11-29T18:11:50.166Z,24.19
2022-11-29T18:14:53.765Z,24.17
2022-11-29T18:17:56.884Z,24.04
2022-11-29T18:21:01.337Z,24.12
2022-11-29T18:24:06.372Z,24.59
2022-11-29T18:27:10.607Z,24.55
2022-11-29T18:30:14.241Z,24.94
2022-11-29T18:33:18.582Z,24.91
2022-11-29T18:36:24.586Z,24.94
2022-11-29T18:39:27.866Z,24.71
2022-11-29T18:42:31.135Z,24.68
2022-11-29T18:45:38.298Z,24.61
2022-11-29T18:48:45.548Z,24.65
2022-11-29T18:51:50.238Z,24.77
2022-11-29T18:54:53.589Z,24.57
2022-11-29T18:57:56.733Z,24.48
2022-11-29T19:01:09.796Z,24.47
2022-11-29T19:04:15.863Z,24.59
2022-11-29T19:07:19.089Z,24.45
2022-11-29T19:10:22.264Z,24.56
2022-11-29T19:13:25.374Z,24.46
2022-11-29T19:16:30.329Z,24.55
2022-11-29T19:19:33.630Z,24.58
2022-11-29T19:22:36.719Z,24.94
2022-11-29T19:25:39.900Z,25.50
2022-11-29T19:28:46.888Z,25.20
2022-11-29T19:31:50.012Z,25.24
2022-11-29T19:34:53.217Z,25.01
2022-11-29T19:37:56.409Z,25.13
2022-11-29T19:40:59.658Z,25.12
2022-11-29T19:44:05.854Z,25.04
2022-11-29T19:47:09.064Z,25.14
2022-11-29T19:50:12.410Z,25.13
2022-11-29T19:53:16.727Z,25.15
2022-11-29T19:56:20.179Z,25.27
2022-11-29T19:59:26.031Z,25.07
2022-11-29T20:02:31.270Z,25.19
2022-11-29T20:05:34.546Z,25.21
2022-11-29T20:08:38.454Z,25.17
2022-11-29T20:11:41.865Z,25.14
2022-11-29T20:14:45.010Z,25.01
2022-11-29T20:17:48.396Z,24.82
2022-11-29T20:20:51.527Z,24.82
2022-11-29T20:23:59.456Z,24.99
2022-11-29T20:27:02.628Z,24.88
2022-11-29T20:30:10.667Z,24.90
2022-11-29T20:33:20.664Z,24.95
2022-11-29T20:36:51.857Z,24.88
2022-11-29T20:39:58.844Z,25.05
2022-11-29T20:43:21.051Z,25.19
2022-11-29T20:46:24.833Z,25.16
2022-11-29T20:49:28.455Z,25.25
2022-11-29T20:52:44.361Z,25.34
2022-11-29T20:55:49.469Z,25.37
2022-11-29T20:58:54.619Z,25.32
2022-11-29T21:01:57.869Z,25.35
2022-11-29T21:05:01.066Z,25.42
2022-11-29T21:08:04.353Z,25.47
2022-11-29T21:11:09.698Z,25.59
2022-11-29T21:14:13.137Z,25.63
2022-11-29T21:17:18.837Z,25.57
2022-11-29T21:20:25.558Z,25.57
2022-11-29T21:23:48.449Z,25.55
2022-11-29T21:26:52.284Z,25.54
2022-11-29T21:29:56.222Z,25.56
2022-11-29T21:32:59.658Z,25.68
2022-11-29T21:36:02.852Z,25.35
2022-11-29T21:39:07.931Z,25.45
2022-11-29T21:42:11.085Z,25.26
2022-11-29T21:45:15.934Z,25.30
2022-11-29T21:48:21.763Z,25.25
2022-11-29T21:51:24.934Z,25.16
2022-11-29T21:54:28.885Z,25.20
2022-11-29T21:57:32.038Z,25.24
2022-11-29T22:00:37.872Z,25.25
2022-11-29T22:03:41.692Z,25.35
2022-11-29T22:06:47.228Z,25.53
2022-11-29T22:09:50.406Z,25.52
2022-11-29T22:12:53.586Z,25.35
2022-11-29T22:16:07.632Z,25.34
2022-11-29T22:19:11.537Z,25.21
2022-11-29T22:22:14.677Z,25.15
2022-11-29T22:25:17.883Z,25.22
2022-11-29T22:28:21.172Z,24.42
2022-11-29T22:31:24.345Z,24.05
2022-11-29T22:34:28.041Z,24.12
2022-11-29T22:37:31.291Z,24.15
2022-11-29T22:40:34.679Z,24.12
2022-11-29T22:43:38.827Z,23.90
2022-11-29T22:46:42.137Z,23.90
2022-11-29T22:49:45.256Z,24.03
2022-11-29T22:52:48.448Z,23.97
2022-11-29T22:55:54.056Z,23.91
2022-11-29T22:58:57.171Z,24.09
2022-11-29T23:02:00.452Z,23.95
2022-11-29T23:05:03.620Z,23.83
2022-11-29T23:08:06.730Z,23.87
2022-11-29T23:11:16.197Z,23.87
2022-11-29T23:14:20.040Z,23.81
2022-11-29T23:17:24.464Z,23.65
2022-11-29T23:20:27.608Z,23.59
2022-11-29T23:23:31.267Z,23.60
2022-11-29T23:26:36.847Z,23.42
2022-11-29T23:29:40.086Z,23.47
2022-11-29T23:32:43.193Z,23.42
2022-11-29T23:35:46.354Z,23.45
2022-11-29T23:38:49.577Z,23.57
2022-11-29T23:41:52.711Z,23.51
2022-11-29T23:44:56.018Z,23.51
2022-11-29T23:47:59.215Z,23.49
2022-11-29T23:51:02.495Z,23.52
2022-11-29T23:54:05.773Z,23.48
2022-11-29T23:57:10.932Z,23.40
